Weather at Nanton (Green Farms) Airport [CLOSED]

Public forecast

Using degrees Celsius for public forecast. Weather courtesy of forecast.io.

Closest aviation weather report (METAR) to Nanton (Green Farms) Airport

Closest report is Calgary International Airport, 45.9 nm (85.0 km) NNW. Retrieved 2020/10/26 18:00 UTC (27 minutes ago):

CYYC 261800Z 35004KT 40SM OVC058 01/M06 A3005 RMK SC8 SLP223

Closest aviation forecast (TAF) to Nanton (Green Farms) Airport

Closest forecast is Calgary International Airport, 45.9 nm (85.0 km) NNW. Retrieved 2020/10/26 18:51 UTC (0 seconds ago):

TAF CYYC 261747Z 2618/2718 33005KT P6SM OVC070 BECMG 2620/2622 23010KT BECMG 2702/2704 26012G22KT FM270900 27018G28KT WS010/27040KT P6SM SCT080 BKN250 RMK NXT FCST BY 262100Z